Time;durP1;ratioP1;P1;durP2;ratioP2;P2;SDS_P1;SDS_P2;PMS_P1;PMS_P2;Temp;Humidity;BMP_temperature;BMP_pressure;BME280_temperature;BME280_humidity;BME280_pressure;Samples;Min_cycle;Max_cycle;Signal;HPM_P1;HPM_P2
2022/12/12 00:08:08;;;;;;;5.45;2.90;;;11.30;82.70;;;;;;21173877;28;20089;-59
2022/12/12 00:18:12;;;;;;;4.23;2.37;;;11.30;82.80;;;;;;21172515;28;20134;-60
2022/12/12 00:28:24;;;;;;;3.75;2.42;;;11.20;82.90;;;;;;21171424;28;20087;-59
2022/12/12 00:38:37;;;;;;;4.75;2.63;;;11.20;83.00;;;;;;21171507;28;20057;-58
2022/12/12 00:48:43;;;;;;;;;;;11.10;83.20;;;;;;21171316;28;20047;-58
2022/12/12 00:58:46;;;;;;;3.65;2.28;;;11.10;82.80;;;;;;21168995;28;20442;-60
2022/12/12 01:08:48;;;;;;;5.53;2.53;;;11.00;83.20;;;;;;21168749;28;20050;-59
2022/12/12 01:18:51;;;;;;;3.38;2.70;;;11.00;83.40;;;;;;21167494;28;20086;-59
2022/12/12 01:28:55;;;;;;;3.97;2.70;;;10.90;83.70;;;;;;21167755;28;20452;-59
2022/12/12 01:38:59;;;;;;;;;;;11.00;83.60;;;;;;21166115;28;20051;-60
2022/12/12 01:49:11;;;;;;;4.88;2.50;;;10.90;83.40;;;;;;21166423;28;19919;-60
2022/12/12 01:59:17;;;;;;;4.00;2.78;;;11.00;83.90;;;;;;21146288;28;20051;-60
2022/12/12 02:09:23;;;;;;;11.20;4.05;;;10.90;84.10;;;;;;21163742;28;20123;-60
2022/12/12 02:19:49;;;;;;;6.05;3.72;;;10.90;83.90;;;;;;21163214;28;20047;-59
2022/12/12 02:30:21;;;;;;;6.65;4.15;;;11.00;84.00;;;;;;21163181;28;20101;-59
2022/12/12 02:40:47;;;;;;;7.07;3.55;;;10.90;84.20;;;;;;21162727;28;20104;-58
2022/12/12 02:50:53;;;;;;;5.18;3.65;;;10.90;84.30;;;;;;21162315;28;20047;-59
2022/12/12 03:01:22;;;;;;;7.30;4.13;;;11.00;84.40;;;;;;21162033;28;20522;-57
2022/12/12 03:11:45;;;;;;;7.78;4.10;;;11.00;84.20;;;;;;21162376;28;20458;-59
2022/12/12 03:22:12;;;;;;;8.32;4.20;;;10.80;84.50;;;;;;21164926;28;20092;-58
2022/12/12 03:32:57;;;;;;;5.75;4.55;;;10.80;84.70;;;;;;20834089;28;20132;-64
2022/12/12 03:43:09;;;;;;;8.03;5.30;;;10.70;84.70;;;;;;20833050;28;20413;-59
2022/12/12 03:53:32;;;;;;;7.17;4.17;;;10.70;84.70;;;;;;20832427;28;20053;-58
2022/12/12 04:03:39;;;;;;;7.50;4.60;;;10.70;84.90;;;;;;20941489;28;20148;-58
2022/12/12 04:14:12;;;;;;;8.35;5.00;;;10.70;84.60;;;;;;21172776;28;20047;-59
2022/12/12 04:24:38;;;;;;;9.45;5.47;;;10.70;84.30;;;;;;21172238;28;20047;-59
2022/12/12 04:35:09;;;;;;;10.63;6.68;;;10.60;84.60;;;;;;21171533;28;20048;-59
2022/12/12 04:45:19;;;;;;;9.50;6.13;;;10.60;84.60;;;;;;21170642;28;20066;-60
2022/12/12 04:55:28;;;;;;;9.23;5.55;;;10.70;84.60;;;;;;21169299;28;20051;-59
2022/12/12 05:05:39;;;;;;;6.68;5.15;;;10.70;84.50;;;;;;21168702;28;20043;-60
2022/12/12 05:15:41;;;;;;;6.97;4.53;;;10.70;84.60;;;;;;21167909;28;20047;-59
2022/12/12 05:25:44;;;;;;;10.15;4.63;;;10.70;84.50;;;;;;21167511;28;20123;-58
2022/12/12 05:35:47;;;;;;;8.32;4.80;;;10.80;84.40;;;;;;21166370;28;20056;-61
2022/12/12 05:45:49;;;;;;;9.35;5.63;;;10.80;84.20;;;;;;21165418;28;20086;-60
2022/12/12 05:55:51;;;;;;;13.55;5.70;;;10.80;84.50;;;;;;21165376;28;20055;-59
2022/12/12 06:05:55;;;;;;;12.85;7.35;;;10.80;84.50;;;;;;21165424;28;20047;-62
2022/12/12 06:15:57;;;;;;;10.57;8.13;;;10.90;84.60;;;;;;21164825;28;20051;-60
2022/12/12 06:25:59;;;;;;;11.90;7.15;;;11.00;84.70;;;;;;21165156;28;20130;-60
2022/12/12 06:36:06;;;;;;;15.77;8.02;;;11.10;85.10;;;;;;21147461;28;20052;-59
2022/12/12 06:46:13;;;;;;;15.07;8.15;;;11.10;85.30;;;;;;21164505;28;20050;-58
2022/12/12 06:56:17;;;;;;;18.63;7.22;;;11.20;85.60;;;;;;21165249;28;20048;-59
2022/12/12 07:06:21;;;;;;;18.80;9.87;;;11.30;85.80;;;;;;21178683;28;20047;-59
2022/12/12 07:16:23;;;;;;;23.50;11.85;;;11.30;86.00;;;;;;21178464;28;20052;-58
2022/12/12 07:26:25;;;;;;;18.60;10.85;;;11.40;86.70;;;;;;21160520;28;20047;-59
2022/12/12 07:36:27;;;;;;;24.33;13.73;;;11.40;86.70;;;;;;21175833;28;20048;-58
2022/12/12 07:46:29;;;;;;;19.85;11.23;;;11.50;86.90;;;;;;21175489;28;20438;-59
2022/12/12 07:56:31;;;;;;;15.85;9.20;;;11.50;87.00;;;;;;21174327;28;20047;-59
2022/12/12 08:06:32;;;;;;;12.40;6.90;;;11.60;87.10;;;;;;21173123;28;20044;-61
2022/12/12 08:16:34;;;;;;;13.45;6.65;;;11.50;87.00;;;;;;21172641;28;20130;-61
2022/12/12 08:26:36;;;;;;;16.80;7.72;;;11.50;87.10;;;;;;21172542;28;20403;-59
2022/12/12 08:36:37;;;;;;;15.30;7.00;;;11.60;87.10;;;;;;21171136;28;20059;-61
2022/12/12 08:46:40;;;;;;;17.95;7.72;;;11.60;87.00;;;;;;21171407;28;20052;-60
2022/12/12 08:56:41;;;;;;;13.85;6.22;;;11.70;87.00;;;;;;21169833;28;20130;-60
2022/12/12 09:06:44;;;;;;;19.40;9.45;;;11.70;87.00;;;;;;21169734;28;20403;-59
2022/12/12 09:16:46;;;;;;;17.00;8.27;;;11.80;87.10;;;;;;21168238;28;20055;-60
2022/12/12 09:26:47;;;;;;;14.48;7.53;;;11.90;87.10;;;;;;21167296;28;20083;-60
2022/12/12 09:36:49;;;;;;;15.95;8.07;;;12.00;87.10;;;;;;21166712;28;20130;-60
2022/12/12 09:47:01;;;;;;;15.23;7.45;;;12.10;87.10;;;;;;21165791;28;20047;-60
2022/12/12 09:57:08;;;;;;;18.67;8.85;;;12.20;87.20;;;;;;21156033;28;20059;-61
2022/12/12 10:07:10;;;;;;;22.27;11.68;;;12.30;87.00;;;;;;21163796;28;20123;-58
2022/12/12 10:17:30;;;;;;;18.17;9.07;;;12.40;87.10;;;;;;21163483;28;20047;-59
2022/12/12 10:27:32;;;;;;;17.73;7.75;;;12.90;85.40;;;;;;21163272;28;20440;-62
2022/12/12 10:37:37;;;;;;;19.63;8.27;;;13.00;85.40;;;;;;21162536;28;20048;-57
2022/12/12 10:47:40;;;;;;;16.42;8.85;;;13.20;84.40;;;;;;21161891;28;20044;-58
2022/12/12 10:57:43;;;;;;;19.83;10.50;;;13.10;85.40;;;;;;21162012;28;20044;-61
2022/12/12 11:07:50;;;;;;;17.65;10.27;;;13.00;85.90;;;;;;21160581;28;20048;-60
2022/12/12 11:17:54;;;;;;;16.27;7.93;;;13.20;86.10;;;;;;21161507;28;20130;-60
2022/12/12 11:28:01;;;;;;;11.60;4.33;;;13.30;86.10;;;;;;21159904;28;20082;-60
2022/12/12 11:38:12;;;;;;;10.93;4.75;;;13.50;86.30;;;;;;21159041;28;20180;-59
2022/12/12 11:48:33;;;;;;;20.42;5.25;;;13.70;86.40;;;;;;21170978;28;20046;-60
2022/12/12 11:58:58;;;;;;;16.75;4.70;;;13.70;86.40;;;;;;21113107;28;20055;-63
2022/12/12 12:09:02;;;;;;;6.82;2.58;;;13.90;86.30;;;;;;21089997;28;20044;-61
2022/12/12 12:19:19;;;;;;;6.73;2.70;;;14.10;85.60;;;;;;21089180;28;20076;-60
2022/12/12 12:29:53;;;;;;;12.70;2.75;;;14.40;84.50;;;;;;21088120;28;20051;-60
2022/12/12 12:40:15;;;;;;;10.82;2.63;;;14.50;84.60;;;;;;20829265;28;20053;-60
2022/12/12 12:50:30;;;;;;;11.82;3.40;;;14.60;84.30;;;;;;20828800;28;20140;-58
2022/12/12 13:00:34;;;;;;;9.40;3.85;;;14.70;84.50;;;;;;20827185;28;20060;-60
2022/12/12 13:10:42;;;;;;;8.88;3.97;;;14.80;84.50;;;;;;20897239;28;20089;-59
2022/12/12 13:20:54;;;;;;;10.00;3.58;;;14.70;84.90;;;;;;21083646;28;20054;-59
2022/12/12 13:31:20;;;;;;;8.77;4.07;;;14.80;84.70;;;;;;21082660;28;20052;-60
2022/12/12 13:41:22;;;;;;;6.57;2.45;;;14.80;84.90;;;;;;21082701;28;20076;-60
2022/12/12 13:51:29;;;;;;;6.10;2.22;;;14.60;85.80;;;;;;21081656;28;20056;-59
2022/12/12 14:01:38;;;;;;;5.95;2.17;;;14.60;85.90;;;;;;21165239;28;20107;-61
2022/12/12 14:11:40;;;;;;;7.53;2.50;;;14.50;86.40;;;;;;21164847;28;20043;-60
2022/12/12 14:21:46;;;;;;;6.00;2.55;;;14.40;86.60;;;;;;21163703;28;20086;-59
2022/12/12 14:32:09;;;;;;;6.90;3.17;;;14.40;87.10;;;;;;21163984;28;20044;-59
2022/12/12 14:42:31;;;;;;;6.13;2.90;;;14.40;87.30;;;;;;21162567;28;20051;-59
2022/12/12 14:52:34;;;;;;;9.18;2.60;;;14.40;87.30;;;;;;21162592;28;20054;-60
2022/12/12 15:02:37;;;;;;;8.55;3.28;;;14.30;87.60;;;;;;21162207;28;20048;-59
2022/12/12 15:12:43;;;;;;;8.20;4.53;;;14.30;87.80;;;;;;21162489;28;20403;-59
2022/12/12 15:23:05;;;;;;;5.15;2.53;;;14.40;87.80;;;;;;21173014;28;20087;-60
2022/12/12 15:33:24;;;;;;;10.63;2.88;;;14.40;87.80;;;;;;21177366;28;20043;-61
2022/12/12 15:43:28;;;;;;;7.97;4.85;;;14.40;87.60;;;;;;21176486;28;20055;-60
2022/12/12 15:53:36;;;;;;;4.47;1.67;;;14.50;87.50;;;;;;21176105;28;20047;-60
2022/12/12 16:03:58;;;;;;;7.07;3.97;;;14.50;87.20;;;;;;21175134;28;20135;-60
2022/12/12 16:14:00;;;;;;;5.63;2.67;;;14.40;87.20;;;;;;21174835;28;20055;-60
2022/12/12 16:24:20;;;;;;;5.38;1.05;;;14.40;87.20;;;;;;21173011;28;20051;-60
2022/12/12 16:34:23;;;;;;;7.05;3.97;;;14.40;87.60;;;;;;21171136;28;20078;-64
2022/12/12 16:44:24;;;;;;;10.07;6.60;;;14.30;87.90;;;;;;21172192;28;20053;-60
2022/12/12 16:54:26;;;;;;;3.78;1.38;;;14.40;87.70;;;;;;21169993;28;20050;-62
2022/12/12 17:04:29;;;;;;;3.13;1.48;;;14.50;87.70;;;;;;21169497;28;20043;-61
2022/12/12 17:14:31;;;;;;;4.72;1.38;;;14.50;87.50;;;;;;21168741;28;20095;-60
2022/12/12 17:24:32;;;;;;;4.35;1.95;;;14.50;87.70;;;;;;21168541;28;20058;-62
2022/12/12 17:34:34;;;;;;;2.10;1.30;;;14.50;87.70;;;;;;21167703;28;20388;-59
2022/12/12 17:44:36;;;;;;;3.10;1.70;;;14.50;87.80;;;;;;21147585;28;20183;-61
2022/12/12 17:54:37;;;;;;;3.70;1.90;;;14.50;88.00;;;;;;21165187;28;20214;-61
2022/12/12 18:04:39;;;;;;;3.08;1.98;;;14.60;88.20;;;;;;21165200;28;20085;-61
2022/12/12 18:14:41;;;;;;;3.30;2.22;;;14.70;88.30;;;;;;21164761;28;20403;-60
2022/12/12 18:24:44;;;;;;;2.60;1.73;;;14.70;88.10;;;;;;21163779;28;20054;-60
2022/12/12 18:34:47;;;;;;;4.90;3.88;;;14.70;88.10;;;;;;21162863;28;20051;-59
2022/12/12 18:44:50;;;;;;;5.18;3.80;;;14.70;88.20;;;;;;21162066;28;20059;-62
2022/12/12 18:54:52;;;;;;;2.90;2.20;;;14.70;88.20;;;;;;21169327;28;20126;-59
2022/12/12 19:04:54;;;;;;;2.50;1.85;;;14.80;88.60;;;;;;21179508;28;20051;-59
2022/12/12 19:14:56;;;;;;;4.53;1.88;;;14.80;88.70;;;;;;21177802;28;20447;-58
2022/12/12 19:24:58;;;;;;;1.50;0.98;;;14.90;89.00;;;;;;21177148;28;20055;-60
2022/12/12 19:35:00;;;;;;;3.90;1.90;;;15.00;88.90;;;;;;21177115;28;20044;-59
2022/12/12 19:45:03;;;;;;;3.28;1.90;;;15.00;88.80;;;;;;21178430;28;20090;-60
2022/12/12 19:55:05;;;;;;;4.45;1.88;;;15.00;88.60;;;;;;21175386;28;20058;-60
2022/12/12 20:05:07;;;;;;;3.80;2.30;;;15.10;88.80;;;;;;21174026;28;20054;-59
2022/12/12 20:15:09;;;;;;;4.00;2.15;;;15.10;88.70;;;;;;21173499;28;20127;-60
2022/12/12 20:25:10;;;;;;;8.38;4.15;;;15.10;88.80;;;;;;21173069;28;20415;-61
2022/12/12 20:35:12;;;;;;;8.88;2.47;;;15.10;88.50;;;;;;21171842;28;20403;-61
2022/12/12 20:45:14;;;;;;;6.80;2.67;;;15.10;88.50;;;;;;21172240;28;20109;-60
2022/12/12 20:55:16;;;;;;;7.35;2.05;;;15.20;88.30;;;;;;21170240;28;20055;-60
2022/12/12 21:05:18;;;;;;;8.07;2.97;;;15.10;88.30;;;;;;21170180;28;20582;-59
2022/12/12 21:15:20;;;;;;;7.35;2.30;;;15.10;88.10;;;;;;21169585;28;20467;-62
2022/12/12 21:25:23;;;;;;;7.47;2.30;;;15.00;87.90;;;;;;21168472;28;20541;-59
2022/12/12 21:35:26;;;;;;;11.05;2.35;;;15.00;87.80;;;;;;21167422;28;20122;-59
2022/12/12 21:45:29;;;;;;;11.55;3.28;;;15.00;87.40;;;;;;21167070;28;20058;-59
2022/12/12 21:55:31;;;;;;;8.35;2.50;;;14.90;87.20;;;;;;21165735;28;20431;-60
2022/12/12 22:05:35;;;;;;;8.63;2.50;;;14.90;86.70;;;;;;21165497;28;20480;-59
2022/12/12 22:15:36;;;;;;;7.45;2.20;;;14.90;86.70;;;;;;21165445;28;20407;-59
2022/12/12 22:25:38;;;;;;;6.78;2.50;;;14.80;86.50;;;;;;21163330;28;20407;-59
2022/12/12 22:35:41;;;;;;;9.70;2.72;;;14.70;86.50;;;;;;21162678;28;20055;-59
2022/12/12 22:45:42;;;;;;;7.82;2.38;;;14.70;86.70;;;;;;21163165;28;20096;-61
2022/12/12 22:55:45;;;;;;;6.72;2.15;;;14.60;87.00;;;;;;21162829;28;20052;-59
2022/12/12 23:05:48;;;;;;;10.82;2.22;;;14.50;87.10;;;;;;21162619;28;20104;-58
2022/12/12 23:15:51;;;;;;;12.00;3.05;;;14.50;87.40;;;;;;21162322;28;20131;-60
2022/12/12 23:26:09;;;;;;;10.15;2.78;;;14.50;87.30;;;;;;21162616;28;20044;-60
2022/12/12 23:36:14;;;;;;;11.52;2.30;;;14.60;87.10;;;;;;21160494;28;20091;-61
2022/12/12 23:46:30;;;;;;;10.48;2.80;;;14.60;87.00;;;;;;21177620;28;20407;-61
2022/12/12 23:56:35;;;;;;;8.85;2.63;;;14.60;86.60;;;;;;21176063;28;20055;-62
